Time;durP1;ratioP1;P1;durP2;ratioP2;P2;SDS_P1;SDS_P2;PMS_P1;PMS_P2;Temp;Humidity;BMP_temperature;BMP_pressure;BME280_temperature;BME280_humidity;BME280_pressure;Samples;Min_cycle;Max_cycle;Signal;HPM_P1;HPM_P2
2023/12/03 00:02:19;;;;;;;31.87;20.47;;;2.60;99.90;;;;;;5021905;28;20652;-80
2023/12/03 00:04:45;;;;;;;33.23;20.80;;;2.60;99.90;;;;;;5024542;28;20228;-82
2023/12/03 00:07:12;;;;;;;28.33;19.23;;;2.70;99.90;;;;;;5018841;28;20657;-80
2023/12/03 00:09:38;;;;;;;31.70;20.97;;;2.70;99.90;;;;;;5013571;28;20214;-80
2023/12/03 00:12:07;;;;;;;33.37;21.87;;;2.60;99.90;;;;;;5017214;28;20240;-81
2023/12/03 00:14:34;;;;;;;29.70;20.67;;;2.50;99.90;;;;;;5027032;28;20197;-80
2023/12/03 00:17:00;;;;;;;27.80;19.37;;;2.50;99.90;;;;;;5014953;28;20257;-81
2023/12/03 00:19:25;;;;;;;32.80;21.40;;;2.40;99.90;;;;;;5014927;28;20340;-80
2023/12/03 00:21:51;;;;;;;32.63;20.33;;;2.30;99.90;;;;;;5015053;28;20170;-82
2023/12/03 00:24:17;;;;;;;29.87;19.97;;;2.40;99.90;;;;;;5013683;28;20260;-81
2023/12/03 00:26:43;;;;;;;34.33;21.20;;;2.40;99.90;;;;;;5014287;28;20620;-80
2023/12/03 00:29:10;;;;;;;29.53;19.43;;;2.50;99.90;;;;;;5013812;28;20182;-81
2023/12/03 00:31:36;;;;;;;28.80;19.43;;;2.50;99.90;;;;;;5015093;28;20162;-81
2023/12/03 00:34:02;;;;;;;30.93;19.37;;;2.30;99.90;;;;;;5014791;28;20171;-81
2023/12/03 00:36:28;;;;;;;31.37;20.00;;;2.40;99.90;;;;;;5012722;28;20182;-81
2023/12/03 00:38:54;;;;;;;26.40;18.00;;;2.50;99.90;;;;;;5013934;28;20214;-80
2023/12/03 00:41:20;;;;;;;28.63;19.00;;;2.40;99.90;;;;;;5012920;28;20178;-81
2023/12/03 00:43:46;;;;;;;27.90;18.10;;;2.40;99.90;;;;;;5013054;28;20197;-82
2023/12/03 00:46:11;;;;;;;28.37;18.93;;;2.10;99.90;;;;;;5013404;28;20170;-81
2023/12/03 00:48:38;;;;;;;27.23;18.23;;;2.10;99.90;;;;;;5013372;28;20213;-82
2023/12/03 00:51:04;;;;;;;30.53;18.80;;;2.10;99.90;;;;;;5013110;28;20193;-81
2023/12/03 00:53:30;;;;;;;28.60;17.87;;;1.90;99.90;;;;;;5013736;28;20701;-81
2023/12/03 00:55:56;;;;;;;28.70;18.30;;;2.00;99.90;;;;;;5012970;28;20261;-80
2023/12/03 00:58:21;;;;;;;28.33;18.93;;;1.90;99.90;;;;;;5012340;28;20712;-82
2023/12/03 01:00:47;;;;;;;27.40;17.90;;;1.70;99.90;;;;;;5014534;28;20241;-80
2023/12/03 01:03:13;;;;;;;27.83;17.60;;;1.90;99.90;;;;;;5015522;28;20206;-80
2023/12/03 01:05:38;;;;;;;28.23;17.90;;;1.80;99.90;;;;;;5013724;28;20720;-80
2023/12/03 01:08:04;;;;;;;29.20;17.53;;;1.90;99.90;;;;;;5013626;28;20558;-82
2023/12/03 01:10:30;;;;;;;28.77;18.30;;;1.80;99.90;;;;;;5013760;28;20202;-80
2023/12/03 01:12:56;;;;;;;27.20;18.37;;;1.80;99.90;;;;;;5014007;28;20178;-80
2023/12/03 01:15:21;;;;;;;29.53;18.20;;;1.80;99.90;;;;;;5013011;28;20632;-80
2023/12/03 01:17:47;;;;;;;29.00;17.83;;;1.80;99.90;;;;;;5012308;28;20699;-80
2023/12/03 01:20:13;;;;;;;29.40;18.87;;;1.80;99.90;;;;;;5012905;28;20221;-80
2023/12/03 01:22:39;;;;;;;27.77;17.87;;;1.70;99.90;;;;;;5011547;28;20404;-79
2023/12/03 01:25:05;;;;;;;31.30;18.33;;;1.90;99.90;;;;;;5012497;28;20178;-80
2023/12/03 01:27:30;;;;;;;27.60;18.07;;;1.70;99.90;;;;;;5012385;28;20542;-80
2023/12/03 01:29:56;;;;;;;29.77;18.10;;;1.70;99.90;;;;;;5013026;28;20178;-80
2023/12/03 01:32:22;;;;;;;28.07;18.73;;;1.70;99.90;;;;;;5012260;28;20183;-81
2023/12/03 01:34:47;;;;;;;30.07;18.93;;;1.90;99.90;;;;;;5012785;28;20204;-82
2023/12/03 01:37:13;;;;;;;33.27;19.40;;;1.70;99.90;;;;;;5011971;28;20622;-81
2023/12/03 01:39:39;;;;;;;29.67;17.93;;;1.80;99.90;;;;;;5013298;28;20257;-79
2023/12/03 01:42:04;;;;;;;27.03;18.07;;;1.70;99.90;;;;;;5011952;28;20614;-80
2023/12/03 01:44:30;;;;;;;29.30;19.47;;;1.70;99.90;;;;;;5012265;28;20197;-79
2023/12/03 01:46:59;;;;;;;29.70;18.77;;;1.70;99.90;;;;;;5012143;28;20182;-80
2023/12/03 01:49:25;;;;;;;31.63;19.17;;;1.80;99.90;;;;;;5012722;28;20658;-81
2023/12/03 01:51:51;;;;;;;28.57;19.77;;;1.80;99.90;;;;;;5013467;28;20237;-80
2023/12/03 01:54:17;;;;;;;30.10;19.77;;;1.70;99.90;;;;;;5011697;28;20174;-79
2023/12/03 01:56:43;;;;;;;29.27;18.93;;;1.60;99.90;;;;;;5012236;28;20224;-80
2023/12/03 01:59:10;;;;;;;30.20;19.47;;;1.70;99.90;;;;;;5011794;28;20202;-79
2023/12/03 02:01:36;;;;;;;31.47;19.83;;;1.50;99.90;;;;;;5012586;28;20178;-80
2023/12/03 02:04:01;;;;;;;30.47;18.90;;;1.60;99.90;;;;;;5013157;28;20700;-79
2023/12/03 02:06:27;;;;;;;30.53;18.33;;;1.50;99.90;;;;;;5012343;28;20175;-83
2023/12/03 02:08:53;;;;;;;29.60;18.40;;;1.60;99.90;;;;;;5011022;28;20708;-81
2023/12/03 02:11:20;;;;;;;32.17;20.33;;;1.50;99.90;;;;;;5011851;28;20622;-80
2023/12/03 02:13:47;;;;;;;32.93;21.17;;;1.50;99.90;;;;;;5012619;28;20638;-80
2023/12/03 02:16:12;;;;;;;31.73;18.87;;;1.70;99.90;;;;;;5009990;28;20177;-80
2023/12/03 02:18:39;;;;;;;31.23;18.13;;;1.60;99.90;;;;;;5011898;28;20241;-81
2023/12/03 02:21:05;;;;;;;31.80;18.73;;;1.50;99.90;;;;;;5011205;28;20272;-80
2023/12/03 02:23:31;;;;;;;35.93;20.03;;;1.50;99.90;;;;;;5012290;28;20175;-80
2023/12/03 02:25:57;;;;;;;33.17;20.27;;;1.40;99.90;;;;;;5011036;28;20174;-81
2023/12/03 02:28:23;;;;;;;32.93;18.57;;;1.40;99.90;;;;;;5011599;28;20228;-81
2023/12/03 02:30:49;;;;;;;31.13;19.10;;;1.40;99.90;;;;;;5011069;28;20178;-79
2023/12/03 02:33:15;;;;;;;35.90;20.20;;;1.60;99.90;;;;;;5010718;28;20653;-79
2023/12/03 02:35:40;;;;;;;33.20;19.83;;;1.40;99.90;;;;;;5011716;28;20174;-79
2023/12/03 02:38:06;;;;;;;32.67;19.03;;;1.40;99.90;;;;;;5012520;28;20252;-80
2023/12/03 02:40:32;;;;;;;31.93;19.27;;;1.40;99.90;;;;;;5012740;28;20198;-80
2023/12/03 02:42:59;;;;;;;33.53;19.67;;;1.30;99.90;;;;;;5011338;28;20269;-81
2023/12/03 02:45:24;;;;;;;30.53;19.13;;;1.30;99.90;;;;;;5011585;28;20174;-79
2023/12/03 02:47:50;;;;;;;28.93;18.80;;;1.40;99.90;;;;;;5012715;28;20528;-80
2023/12/03 02:50:16;;;;;;;33.87;21.00;;;1.40;99.90;;;;;;5011240;28;20174;-80
2023/12/03 02:52:41;;;;;;;31.23;19.37;;;1.20;99.90;;;;;;5012759;28;20513;-79
2023/12/03 02:55:08;;;;;;;34.00;20.43;;;1.20;99.90;;;;;;5012345;28;20688;-80
2023/12/03 02:57:37;;;;;;;32.43;20.17;;;1.20;99.90;;;;;;5011466;28;20174;-79
2023/12/03 03:00:07;;;;;;;31.77;18.87;;;1.20;99.90;;;;;;5010321;28;20221;-79
2023/12/03 03:02:33;;;;;;;29.73;18.97;;;1.20;99.90;;;;;;5013336;28;20178;-79
2023/12/03 03:04:58;;;;;;;32.50;19.83;;;1.30;99.90;;;;;;5016380;28;20175;-80
2023/12/03 03:07:24;;;;;;;33.37;20.53;;;1.20;99.90;;;;;;5014805;28;20210;-80
2023/12/03 03:09:50;;;;;;;32.10;19.33;;;1.20;99.90;;;;;;5014515;28;20220;-79
2023/12/03 03:12:16;;;;;;;29.03;18.73;;;1.20;99.90;;;;;;5014549;28;20213;-79
2023/12/03 03:14:41;;;;;;;27.40;18.37;;;1.20;99.90;;;;;;5014928;28;20174;-79
2023/12/03 03:17:07;;;;;;;32.00;19.93;;;1.20;99.90;;;;;;5015871;28;20217;-79
2023/12/03 03:19:33;;;;;;;31.40;19.10;;;1.20;99.90;;;;;;5015005;28;20209;-78
2023/12/03 03:21:59;;;;;;;35.57;20.37;;;1.10;99.90;;;;;;5015929;28;20174;-79
2023/12/03 03:24:24;;;;;;;32.57;19.63;;;1.10;99.90;;;;;;5015169;28;20178;-79
2023/12/03 03:26:50;;;;;;;30.80;19.03;;;1.20;99.90;;;;;;5014872;28;20166;-80
2023/12/03 03:29:16;;;;;;;34.87;19.63;;;1.20;99.90;;;;;;5015930;28;20220;-80
2023/12/03 03:31:42;;;;;;;32.50;19.67;;;1.20;99.90;;;;;;5013542;28;20213;-80
2023/12/03 03:34:08;;;;;;;34.70;20.47;;;1.20;99.90;;;;;;5014053;28;20182;-80
2023/12/03 03:36:33;;;;;;;36.13;20.40;;;1.30;99.90;;;;;;5014508;28;20181;-79
2023/12/03 03:38:59;;;;;;;32.93;20.17;;;1.20;99.90;;;;;;5014081;28;20246;-80
2023/12/03 03:41:25;;;;;;;35.20;21.10;;;1.20;99.90;;;;;;5014248;28;20178;-80
2023/12/03 03:43:50;;;;;;;36.63;20.73;;;1.30;99.90;;;;;;5014172;28;20170;-80
2023/12/03 03:46:16;;;;;;;33.90;20.17;;;1.20;99.90;;;;;;5019297;28;20540;-78
2023/12/03 03:48:42;;;;;;;31.73;19.10;;;1.30;99.90;;;;;;5034455;28;20169;-78
2023/12/03 03:51:08;;;;;;;32.43;19.83;;;1.10;99.90;;;;;;5034381;28;20241;-79
2023/12/03 03:53:34;;;;;;;31.60;19.70;;;1.30;99.90;;;;;;5034522;28;20173;-79
2023/12/03 03:56:08;;;;;;;32.50;19.77;;;1.20;99.90;;;;;;5034186;28;20205;-80
2023/12/03 03:58:35;;;;;;;39.20;25.20;;;1.20;99.90;;;;;;5033498;28;20169;-78
2023/12/03 04:01:07;;;;;;;37.10;22.10;;;1.30;99.90;;;;;;5033749;28;20177;-79
2023/12/03 04:03:33;;;;;;;32.63;18.67;;;1.20;99.90;;;;;;5034915;28;20243;-79
2023/12/03 04:06:06;;;;;;;34.97;20.17;;;1.20;99.90;;;;;;5034380;28;20212;-79
2023/12/03 04:08:33;;;;;;;29.73;19.93;;;1.20;99.90;;;;;;5033317;28;20193;-79
2023/12/03 04:11:04;;;;;;;34.43;20.33;;;1.20;99.90;;;;;;5033359;28;20174;-79
2023/12/03 04:13:30;;;;;;;31.33;19.53;;;1.20;99.90;;;;;;5034299;28;20169;-80
2023/12/03 04:15:56;;;;;;;34.80;20.23;;;1.20;99.90;;;;;;5033257;28;20209;-79
2023/12/03 04:18:23;;;;;;;34.17;20.57;;;1.20;99.90;;;;;;5033535;28;20182;-79
2023/12/03 04:20:49;;;;;;;34.27;20.83;;;1.20;99.90;;;;;;5032355;28;20416;-81
2023/12/03 04:23:15;;;;;;;37.93;20.43;;;1.30;99.90;;;;;;5033114;28;20192;-80
2023/12/03 04:25:41;;;;;;;35.07;20.70;;;1.40;99.90;;;;;;5032973;28;20170;-80
2023/12/03 04:28:07;;;;;;;32.47;19.70;;;1.30;99.90;;;;;;5033249;28;20216;-78
2023/12/03 04:30:33;;;;;;;29.23;18.73;;;1.20;99.90;;;;;;5033110;28;20177;-78
2023/12/03 04:32:58;;;;;;;33.10;19.07;;;1.30;99.90;;;;;;5033224;28;20196;-81
2023/12/03 04:35:24;;;;;;;32.13;20.20;;;1.40;99.90;;;;;;5034871;28;20169;-80
2023/12/03 04:37:50;;;;;;;29.33;19.40;;;1.30;99.30;;;;;;5033161;28;20716;-80
2023/12/03 04:40:16;;;;;;;31.90;19.83;;;1.50;99.30;;;;;;5034569;28;20217;-80
2023/12/03 04:42:42;;;;;;;27.70;18.10;;;1.30;98.70;;;;;;5033935;28;20172;-79
2023/12/03 04:45:09;;;;;;;33.77;19.53;;;1.30;98.00;;;;;;5033783;28;20210;-79
2023/12/03 04:47:34;;;;;;;31.80;19.63;;;1.30;97.50;;;;;;5034194;28;20633;-78
2023/12/03 04:50:00;;;;;;;32.43;19.00;;;1.30;97.60;;;;;;5034069;28;20212;-79
2023/12/03 04:52:26;;;;;;;32.67;19.77;;;1.40;97.40;;;;;;5031685;28;20209;-78
2023/12/03 04:54:51;;;;;;;32.67;18.43;;;1.50;97.10;;;;;;5032480;28;20205;-79
2023/12/03 04:57:17;;;;;;;32.53;19.80;;;1.40;96.10;;;;;;5032239;28;20634;-79
2023/12/03 04:59:43;;;;;;;32.43;19.33;;;1.50;95.50;;;;;;5032180;28;20211;-79
2023/12/03 05:02:08;;;;;;;33.87;19.27;;;1.40;94.20;;;;;;5032324;28;20699;-79
2023/12/03 05:04:34;;;;;;;33.93;19.03;;;1.50;93.70;;;;;;5033986;28;20644;-79
2023/12/03 05:06:59;;;;;;;28.47;19.73;;;1.60;92.00;;;;;;5032898;28;20630;-80
2023/12/03 05:09:25;;;;;;;32.17;18.90;;;1.40;91.00;;;;;;5031630;28;20217;-79
2023/12/03 05:11:51;;;;;;;30.10;18.60;;;1.50;91.30;;;;;;5033753;28;20557;-79
2023/12/03 05:14:16;;;;;;;30.57;18.53;;;1.50;91.10;;;;;;5032108;28;20181;-79
2023/12/03 05:16:42;;;;;;;26.20;17.10;;;1.40;90.80;;;;;;5033096;28;20181;-79
2023/12/03 05:19:08;;;;;;;30.03;18.70;;;1.50;90.70;;;;;;5032883;28;20606;-79
2023/12/03 05:21:33;;;;;;;31.13;18.57;;;1.30;90.40;;;;;;5033608;28;20170;-78
2023/12/03 05:23:59;;;;;;;30.93;18.77;;;1.40;90.40;;;;;;5031144;28;20512;-78
2023/12/03 05:26:24;;;;;;;26.80;17.53;;;1.30;90.40;;;;;;5033748;28;20637;-78
2023/12/03 05:28:50;;;;;;;32.27;18.10;;;1.30;88.70;;;;;;5031645;28;20565;-79
2023/12/03 05:31:16;;;;;;;26.63;17.87;;;1.30;89.10;;;;;;5032197;28;20208;-79
2023/12/03 05:33:42;;;;;;;30.33;17.93;;;1.30;88.00;;;;;;5031164;28;20177;-80
2023/12/03 05:36:08;;;;;;;26.63;16.37;;;1.40;86.50;;;;;;5032054;28;20178;-79
2023/12/03 05:38:34;;;;;;;28.23;17.10;;;1.40;85.40;;;;;;5031840;28;20181;-79
2023/12/03 05:41:00;;;;;;;24.93;16.30;;;1.40;83.60;;;;;;5033319;28;20219;-79
2023/12/03 05:43:25;;;;;;;26.17;16.50;;;1.30;81.30;;;;;;5031089;28;20635;-80
2023/12/03 05:45:51;;;;;;;28.43;16.13;;;1.50;80.30;;;;;;5033518;28;20174;-78
2023/12/03 05:48:16;;;;;;;27.70;16.10;;;1.40;79.60;;;;;;5032652;28;20598;-79
2023/12/03 05:50:42;;;;;;;25.33;15.27;;;1.40;78.30;;;;;;5031226;28;20264;-79
2023/12/03 05:53:08;;;;;;;24.70;14.87;;;1.50;74.20;;;;;;5033263;28;20600;-79
2023/12/03 05:55:34;;;;;;;24.90;15.07;;;1.40;72.80;;;;;;5032794;28;20177;-80
2023/12/03 05:58:00;;;;;;;25.10;15.97;;;1.40;73.40;;;;;;5031582;28;20201;-79
2023/12/03 06:00:26;;;;;;;28.93;16.37;;;1.40;71.20;;;;;;5030939;28;20201;-78
2023/12/03 06:02:52;;;;;;;24.60;14.67;;;1.40;69.10;;;;;;5032392;28;20166;-81
2023/12/03 06:05:18;;;;;;;22.60;14.20;;;1.40;67.90;;;;;;5031783;28;20541;-80
2023/12/03 06:07:43;;;;;;;22.97;15.40;;;1.40;67.10;;;;;;5033046;28;20166;-79
2023/12/03 06:10:09;;;;;;;21.97;14.43;;;1.40;65.60;;;;;;5031292;28;20815;-80
2023/12/03 06:12:35;;;;;;;22.93;14.20;;;1.40;64.30;;;;;;5032716;28;20646;-79
2023/12/03 06:15:00;;;;;;;21.33;13.67;;;1.40;62.90;;;;;;5031733;28;20253;-80
2023/12/03 06:17:26;;;;;;;23.20;14.13;;;1.40;61.60;;;;;;5031870;28;20223;-79
2023/12/03 06:19:52;;;;;;;24.13;14.17;;;1.50;60.90;;;;;;5030898;28;20252;-80
2023/12/03 06:22:18;;;;;;;23.30;14.67;;;1.40;59.90;;;;;;5030713;28;20174;-79
2023/12/03 06:24:43;;;;;;;22.17;13.73;;;1.50;60.30;;;;;;5032228;28;20632;-80
2023/12/03 06:27:09;;;;;;;24.10;14.67;;;1.50;57.80;;;;;;5030941;28;20556;-79
2023/12/03 06:29:34;;;;;;;23.77;14.63;;;1.60;57.20;;;;;;5031934;28;20227;-80
2023/12/03 06:32:00;;;;;;;22.90;14.13;;;1.60;55.60;;;;;;5031979;28;20668;-80
2023/12/03 06:34:26;;;;;;;23.87;14.67;;;1.50;54.40;;;;;;5031010;28;20224;-79
2023/12/03 06:36:51;;;;;;;24.03;14.10;;;1.70;54.10;;;;;;5031189;28;20235;-79
2023/12/03 06:39:17;;;;;;;22.10;13.97;;;1.50;54.30;;;;;;5030152;28;20209;-79
2023/12/03 06:41:43;;;;;;;23.23;14.00;;;1.50;53.10;;;;;;5030842;28;20606;-79
2023/12/03 06:44:09;;;;;;;23.47;13.90;;;1.50;53.20;;;;;;5031655;28;20174;-79
2023/12/03 06:46:41;;;;;;;20.17;13.57;;;1.40;52.00;;;;;;5032621;28;20174;-79
2023/12/03 06:49:07;;;;;;;21.73;13.87;;;1.40;53.00;;;;;;5031932;28;20581;-79
2023/12/03 06:51:33;;;;;;;21.57;13.53;;;1.40;54.50;;;;;;5030062;28;20177;-79
2023/12/03 06:54:00;;;;;;;22.50;14.00;;;1.40;54.30;;;;;;5031049;28;20212;-79
2023/12/03 06:56:26;;;;;;;20.80;12.53;;;1.40;53.90;;;;;;5030634;28;20260;-79
2023/12/03 06:58:51;;;;;;;22.20;14.03;;;1.40;52.60;;;;;;5030734;28;20268;-80
2023/12/03 07:01:17;;;;;;;22.70;14.20;;;1.50;54.30;;;;;;5031053;28;20476;-80
2023/12/03 07:03:43;;;;;;;22.33;14.07;;;1.50;53.10;;;;;;5031041;28;20581;-80
2023/12/03 07:06:09;;;;;;;21.00;13.40;;;1.60;53.30;;;;;;5031227;28;20204;-80
2023/12/03 07:08:34;;;;;;;23.33;13.87;;;1.50;52.90;;;;;;5031623;28;20228;-80
2023/12/03 07:11:00;;;;;;;23.00;13.47;;;1.40;50.40;;;;;;5030582;28;20210;-79
2023/12/03 07:13:26;;;;;;;22.57;13.63;;;1.50;51.50;;;;;;5030122;28;20656;-80
2023/12/03 07:15:51;;;;;;;22.50;14.37;;;1.40;52.80;;;;;;5030221;28;20312;-80
2023/12/03 07:18:17;;;;;;;21.53;14.33;;;1.40;52.70;;;;;;5030460;28;20645;-79
2023/12/03 07:20:43;;;;;;;20.80;12.67;;;1.50;52.50;;;;;;5030829;28;20267;-80
2023/12/03 07:23:08;;;;;;;21.33;13.17;;;1.40;52.00;;;;;;5030930;28;20173;-81
2023/12/03 07:25:34;;;;;;;22.47;13.93;;;1.50;51.60;;;;;;5031647;28;20637;-81
2023/12/03 07:28:00;;;;;;;22.03;12.63;;;1.50;52.30;;;;;;5031520;28;20632;-80
2023/12/03 07:30:26;;;;;;;22.17;13.70;;;1.50;51.70;;;;;;5031161;28;20327;-81
2023/12/03 07:32:52;;;;;;;21.03;14.20;;;1.50;51.50;;;;;;5030487;28;20639;-80
2023/12/03 07:35:18;;;;;;;23.53;13.23;;;1.40;51.60;;;;;;5032134;28;20197;-81
2023/12/03 07:37:43;;;;;;;19.80;12.33;;;1.50;49.40;;;;;;5030433;28;20174;-81
2023/12/03 07:40:09;;;;;;;21.03;13.23;;;1.40;48.90;;;;;;5029980;28;20423;-81
2023/12/03 07:42:35;;;;;;;21.07;13.53;;;1.40;48.70;;;;;;5031818;28;20169;-81
2023/12/03 07:45:01;;;;;;;19.77;12.60;;;1.50;49.30;;;;;;5032046;28;20558;-80
2023/12/03 07:47:29;;;;;;;21.10;11.73;;;1.60;48.40;;;;;;5034580;28;20695;-81
2023/12/03 07:49:55;;;;;;;21.93;12.93;;;1.50;47.40;;;;;;5033985;28;20276;-79
2023/12/03 07:52:21;;;;;;;23.60;14.50;;;1.50;47.60;;;;;;5031452;28;20269;-79
2023/12/03 07:54:46;;;;;;;21.50;13.37;;;1.50;46.30;;;;;;5034411;28;20269;-79
2023/12/03 07:57:12;;;;;;;20.40;13.43;;;1.50;45.60;;;;;;5034819;28;20703;-81
2023/12/03 07:59:39;;;;;;;18.77;11.57;;;1.60;46.10;;;;;;5034694;28;20632;-80
2023/12/03 08:02:05;;;;;;;23.17;13.93;;;1.60;45.10;;;;;;5034966;28;20633;-79
2023/12/03 08:04:30;;;;;;;19.67;13.47;;;1.70;44.90;;;;;;5032860;28;20177;-79
2023/12/03 08:06:56;;;;;;;19.83;12.80;;;1.60;43.20;;;;;;5035067;28;20691;-80
2023/12/03 08:09:22;;;;;;;22.37;13.07;;;1.60;42.60;;;;;;5033538;28;20251;-79
2023/12/03 08:11:47;;;;;;;22.47;13.83;;;1.70;42.80;;;;;;5033162;28;20173;-81
2023/12/03 08:14:13;;;;;;;20.30;12.63;;;1.60;42.70;;;;;;5034307;28;20625;-80
2023/12/03 08:16:39;;;;;;;21.47;12.40;;;1.60;41.60;;;;;;5034077;28;20192;-81
2023/12/03 08:19:05;;;;;;;22.37;12.83;;;1.70;41.30;;;;;;5032780;28;20201;-80
2023/12/03 08:21:32;;;;;;;21.23;12.87;;;1.60;41.50;;;;;;5033697;28;20169;-81
2023/12/03 08:23:58;;;;;;;20.00;13.00;;;1.70;40.90;;;;;;5032436;28;20660;-79
2023/12/03 08:26:24;;;;;;;20.40;11.50;;;1.70;39.00;;;;;;5033809;28;20170;-79
2023/12/03 08:28:50;;;;;;;21.93;13.00;;;1.70;37.70;;;;;;5034577;28;20182;-79
2023/12/03 08:31:15;;;;;;;19.27;12.60;;;1.90;35.80;;;;;;5033244;28;20584;-83
2023/12/03 08:33:41;;;;;;;17.90;11.50;;;2.00;35.90;;;;;;5033353;28;20186;-82
2023/12/03 08:36:08;;;;;;;19.67;12.30;;;1.90;33.90;;;;;;5032021;28;20181;-82
2023/12/03 08:38:33;;;;;;;20.57;12.27;;;1.90;31.60;;;;;;5033352;28;20184;-80
2023/12/03 08:40:59;;;;;;;19.20;12.27;;;1.90;31.20;;;;;;5032855;28;20300;-81
2023/12/03 08:43:25;;;;;;;19.63;12.03;;;1.90;30.70;;;;;;5034355;28;20249;-80
2023/12/03 08:45:50;;;;;;;18.80;11.90;;;1.90;30.00;;;;;;5033750;28;20180;-82
2023/12/03 08:48:16;;;;;;;22.60;11.73;;;1.90;29.00;;;;;;5032132;28;20185;-81
2023/12/03 08:50:42;;;;;;;18.40;12.17;;;2.00;28.40;;;;;;5032471;28;20204;-81
2023/12/03 08:53:08;;;;;;;19.40;11.50;;;2.10;27.80;;;;;;5034256;28;20209;-80
2023/12/03 08:55:33;;;;;;;19.13;11.73;;;2.00;26.90;;;;;;5032416;28;20220;-81
2023/12/03 08:58:01;;;;;;;20.00;12.00;;;2.10;26.60;;;;;;5032362;28;20172;-81
2023/12/03 09:00:27;;;;;;;18.20;11.27;;;2.10;24.60;;;;;;5032803;28;20212;-81
2023/12/03 09:02:52;;;;;;;18.60;11.30;;;2.20;24.00;;;;;;5032615;28;20174;-79
2023/12/03 09:05:18;;;;;;;20.07;12.03;;;2.30;23.70;;;;;;5033761;28;20538;-82
2023/12/03 09:07:44;;;;;;;19.67;12.30;;;2.30;22.20;;;;;;5034010;28;20272;-81
2023/12/03 09:10:10;;;;;;;17.53;11.00;;;2.50;21.60;;;;;;5032346;28;20213;-81
2023/12/03 09:12:36;;;;;;;16.53;10.97;;;2.30;19.60;;;;;;5032766;28;20223;-81
2023/12/03 09:15:03;;;;;;;17.47;11.00;;;2.30;19.20;;;;;;5032368;28;20728;-80
2023/12/03 09:17:28;;;;;;;16.80;11.20;;;2.30;18.40;;;;;;5029052;28;20190;-81
2023/12/03 09:19:54;;;;;;;17.30;11.13;;;2.40;18.20;;;;;;5031571;28;20652;-82
2023/12/03 09:22:20;;;;;;;18.83;11.43;;;2.40;17.10;;;;;;5031616;28;20716;-81
2023/12/03 09:24:46;;;;;;;18.20;11.60;;;2.50;16.30;;;;;;5031815;28;20853;-82
2023/12/03 09:27:12;;;;;;;18.63;11.37;;;2.50;15.50;;;;;;5030809;28;20180;-83
2023/12/03 09:29:37;;;;;;;20.43;12.13;;;2.50;15.00;;;;;;5032147;28;20610;-80
2023/12/03 09:32:04;;;;;;;20.83;12.13;;;2.60;14.70;;;;;;5033017;28;20617;-80
2023/12/03 09:34:30;;;;;;;18.23;11.87;;;2.40;14.30;;;;;;5031247;28;20177;-81
2023/12/03 09:36:56;;;;;;;18.67;11.60;;;2.50;16.00;;;;;;5033194;28;20201;-82
2023/12/03 09:39:22;;;;;;;20.80;12.07;;;2.50;13.30;;;;;;5033217;28;20212;-83
2023/12/03 09:41:50;;;;;;;20.77;12.37;;;2.50;12.90;;;;;;5032181;28;20174;-80
2023/12/03 09:44:22;;;;;;;19.67;11.87;;;2.60;15.10;;;;;;5032803;28;20176;-80
2023/12/03 09:46:50;;;;;;;18.53;11.87;;;2.50;15.50;;;;;;5033107;28;20162;-80
2023/12/03 09:49:20;;;;;;;19.30;12.40;;;2.60;15.40;;;;;;5032598;28;20166;-81
2023/12/03 09:51:46;;;;;;;25.00;12.67;;;2.60;16.10;;;;;;5031636;28;20264;-79
2023/12/03 09:54:11;;;;;;;18.17;11.37;;;2.80;15.30;;;;;;5032591;28;20307;-81
2023/12/03 09:56:42;;;;;;;17.63;11.63;;;2.80;12.00;;;;;;5030617;28;20216;-81
2023/12/03 09:59:10;;;;;;;22.13;12.47;;;2.70;15.70;;;;;;5031286;28;20240;-81
2023/12/03 10:01:40;;;;;;;18.57;12.33;;;2.70;11.40;;;;;;5031259;28;20177;-80
2023/12/03 10:04:06;;;;;;;20.53;12.70;;;2.80;5.70;;;;;;5030229;28;20177;-81
2023/12/03 10:06:36;;;;;;;19.10;12.17;;;2.70;1.00;;;;;;5029329;28;20229;-81
2023/12/03 10:09:06;;;;;;;17.83;11.97;;;2.70;1.00;;;;;;5030176;28;20308;-81
2023/12/03 10:11:39;;;;;;;19.47;12.80;;;2.70;1.00;;;;;;5030906;28;20259;-80
2023/12/03 10:14:08;;;;;;;21.37;13.33;;;2.70;1.00;;;;;;5032529;28;20165;-82
2023/12/03 10:16:34;;;;;;;26.80;13.30;;;2.70;2.90;;;;;;5030999;28;20173;-80
2023/12/03 10:19:00;;;;;;;20.50;12.70;;;2.80;1.90;;;;;;5031297;28;20177;-81
2023/12/03 10:21:27;;;;;;;19.23;12.83;;;2.80;1.40;;;;;;5029943;28;20182;-81
2023/12/03 10:24:03;;;;;;;23.57;12.83;;;2.80;1.00;;;;;;5031268;28;20161;-80
2023/12/03 10:26:30;;;;;;;22.13;13.80;;;2.80;1.00;;;;;;5030871;28;20667;-82
2023/12/03 10:28:55;;;;;;;26.03;12.87;;;3.10;1.00;;;;;;5029084;28;20645;-81
2023/12/03 10:31:21;;;;;;;22.03;13.03;;;2.90;1.00;;;;;;5030874;28;20215;-81
2023/12/03 10:33:47;;;;;;;19.00;11.93;;;3.00;1.00;;;;;;5030016;28;20244;-81
2023/12/03 10:36:13;;;;;;;22.70;13.20;;;3.00;1.00;;;;;;5030878;28;20231;-81
2023/12/03 10:38:40;;;;;;;20.37;12.73;;;2.80;1.00;;;;;;5031800;28;20169;-82
2023/12/03 10:41:08;;;;;;;23.57;13.10;;;2.90;1.10;;;;;;5030281;28;20627;-80
2023/12/03 10:43:35;;;;;;;21.33;13.43;;;2.90;1.00;;;;;;5030727;28;20193;-81
2023/12/03 10:46:08;;;;;;;21.80;13.30;;;2.90;1.00;;;;;;5030899;28;20695;-81
2023/12/03 10:48:35;;;;;;;22.97;12.90;;;2.80;1.00;;;;;;5030488;28;20169;-81
2023/12/03 10:51:06;;;;;;;22.73;13.23;;;3.00;1.00;;;;;;5030356;28;20721;-82
2023/12/03 10:53:33;;;;;;;22.77;14.13;;;2.90;1.00;;;;;;5030618;28;20315;-80
2023/12/03 10:56:17;;;;;;;20.47;13.33;;;3.00;1.00;;;;;;5032152;28;20602;-81
2023/12/03 10:58:44;;;;;;;22.13;12.03;;;2.90;1.00;;;;;;5029996;28;20213;-82
2023/12/03 11:01:19;;;;;;;17.47;11.63;;;2.90;1.00;;;;;;5029546;28;20213;-81
2023/12/03 11:03:56;;;;;;;21.33;12.17;;;3.00;1.00;;;;;;5030807;28;20182;-82
2023/12/03 11:06:25;;;;;;;18.47;11.47;;;3.00;1.00;;;;;;5031682;28;20172;-81
2023/12/03 11:08:52;;;;;;;20.30;12.13;;;3.00;1.00;;;;;;5029955;28;20302;-82
2023/12/03 11:11:20;;;;;;;19.17;12.17;;;3.00;1.00;;;;;;5030440;28;20266;-80
2023/12/03 11:13:50;;;;;;;18.27;12.60;;;2.90;1.00;;;;;;5032353;28;20170;-83
2023/12/03 11:16:18;;;;;;;20.77;12.33;;;3.00;1.00;;;;;;5030622;28;20543;-81
2023/12/03 11:18:58;;;;;;;20.43;12.23;;;3.00;1.00;;;;;;5029196;28;20165;-83
2023/12/03 11:21:57;;;;;;;20.43;12.63;;;3.00;1.00;;;;;;5031139;28;20193;-81
2023/12/03 11:24:23;;;;;;;20.03;12.10;;;3.10;1.00;;;;;;5033802;28;20181;-81
2023/12/03 11:26:49;;;;;;;19.20;12.80;;;3.20;1.00;;;;;;5033720;28;20265;-82
2023/12/03 11:29:15;;;;;;;21.07;12.77;;;3.20;1.00;;;;;;5034982;28;20166;-82
2023/12/03 11:31:41;;;;;;;22.30;12.40;;;3.20;1.00;;;;;;5038999;28;20170;-81
2023/12/03 11:34:10;;;;;;;18.50;11.97;;;3.20;1.00;;;;;;5040004;28;20525;-81
2023/12/03 11:36:42;;;;;;;19.77;12.10;;;3.20;1.00;;;;;;5035534;28;20162;-80
2023/12/03 11:39:08;;;;;;;19.40;12.37;;;3.10;1.00;;;;;;5034700;28;20624;-82
2023/12/03 11:41:38;;;;;;;18.43;11.30;;;3.30;1.00;;;;;;5034802;28;20183;-82
2023/12/03 11:44:20;;;;;;;18.83;12.90;;;3.20;1.00;;;;;;5034275;28;20166;-81
2023/12/03 11:47:10;;;;;;;18.37;12.30;;;3.20;1.00;;;;;;5035118;28;20169;-80
2023/12/03 11:49:37;;;;;;;17.40;11.53;;;3.20;1.00;;;;;;5033691;28;20649;-81
2023/12/03 11:52:04;;;;;;;18.87;11.47;;;3.20;1.00;;;;;;5033781;28;20209;-80
2023/12/03 11:54:53;;;;;;;21.47;11.60;;;3.30;1.00;;;;;;5033704;28;20675;-81
2023/12/03 11:57:19;;;;;;;16.07;10.50;;;3.40;1.00;;;;;;5034683;28;20192;-84
2023/12/03 11:59:45;;;;;;;15.83;10.53;;;3.30;1.00;;;;;;5033110;28;20292;-83
2023/12/03 12:02:12;;;;;;;18.00;11.80;;;3.60;1.00;;;;;;5033447;28;20181;-87
2023/12/03 12:04:38;;;;;;;15.70;11.13;;;3.40;1.00;;;;;;5034975;28;20173;-85
2023/12/03 12:07:15;;;;;;;17.27;9.83;;;3.50;1.00;;;;;;5033478;28;20173;-82
2023/12/03 12:09:40;;;;;;;16.57;9.70;;;3.50;1.00;;;;;;5033100;28;20212;-79
2023/12/03 12:12:06;;;;;;;14.80;9.93;;;3.50;1.00;;;;;;5034452;28;20177;-87
2023/12/03 12:14:32;;;;;;;15.50;9.90;;;3.40;1.00;;;;;;5033279;28;20189;-87
2023/12/03 12:16:58;;;;;;;19.73;10.90;;;3.40;1.00;;;;;;5033504;28;20170;-81
2023/12/03 12:19:23;;;;;;;16.50;9.87;;;3.50;1.00;;;;;;5033105;28;20204;-83
2023/12/03 12:21:54;;;;;;;17.90;10.30;;;3.50;1.00;;;;;;5033211;28;20707;-87
2023/12/03 12:24:21;;;;;;;16.07;10.40;;;3.30;1.00;;;;;;5033389;28;20289;-87
2023/12/03 12:26:47;;;;;;;17.23;10.03;;;3.30;9.60;;;;;;5033462;28;20254;-85
2023/12/03 12:29:13;;;;;;;16.03;10.43;;;3.10;14.30;;;;;;5033083;28;20204;-89
2023/12/03 12:31:40;;;;;;;15.33;10.70;;;3.10;21.10;;;;;;5033948;28;20219;-87
2023/12/03 12:34:05;;;;;;;18.97;11.13;;;3.10;26.40;;;;;;5032130;28;20181;-85
2023/12/03 12:36:31;;;;;;;20.20;13.70;;;3.20;29.50;;;;;;5035057;28;20656;-84